Terminal Aerodrome Forecast
Issued by NWS

Home | Current Version | Previous Version | Text Only | Print | Product List | Glossary On
Versions: 1 2 3 4 5 6 7 8 9 10 11 12 13 14 15 16 17 18 19
000
FTUS41 KPBZ 091734 AAA
TAFBVI
TAF AMD
KBVI 091734Z 0918/1018 27010G20KT P6SM -SHSN OVC020
     FM100000 26008KT P6SM BKN020
     FM101600 25008KT P6SM BKN035=

USA.gov is the U.S. government's official web portal to all federal, state and local government web resources and services.